Time;durP1;ratioP1;P1;durP2;ratioP2;P2;SDS_P1;SDS_P2;PMS_P1;PMS_P2;Temp;Humidity;BMP_temperature;BMP_pressure;BME280_temperature;BME280_humidity;BME280_pressure;Samples;Min_cycle;Max_cycle;Signal;HPM_P1;HPM_P2
2023/11/24 00:00:29;;;;;;;13.32;6.63;;;;;;;7.85;73.01;94664.34;4837432;29;20029;-76
2023/11/24 00:02:54;;;;;;;10.82;6.50;;;;;;;7.85;73.31;94658.09;4836267;29;20086;-77
2023/11/24 00:05:21;;;;;;;8.75;5.82;;;;;;;7.80;73.34;94656.66;4853978;29;20021;-76
2023/11/24 00:07:47;;;;;;;8.38;6.30;;;;;;;7.80;73.25;94645.72;4851757;29;20081;-76
2023/11/24 00:10:13;;;;;;;10.38;6.45;;;;;;;7.84;73.13;94651.09;4852339;29;20025;-77
2023/11/24 00:12:38;;;;;;;11.65;6.70;;;;;;;7.79;73.48;94630.47;4836918;29;20037;-76
2023/11/24 00:15:04;;;;;;;10.75;6.50;;;;;;;7.76;73.33;94633.31;4836223;29;20038;-76
2023/11/24 00:17:30;;;;;;;11.57;6.80;;;;;;;7.75;73.40;94637.25;4837278;29;20063;-76
2023/11/24 00:19:55;;;;;;;15.52;6.53;;;;;;;7.73;73.10;94622.00;4852957;29;20481;-76
2023/11/24 00:22:21;;;;;;;11.38;7.03;;;;;;;7.62;73.37;94607.03;4852433;29;20112;-77
2023/11/24 00:24:49;;;;;;;11.45;7.00;;;;;;;7.70;73.71;94619.38;4852700;29;20074;-76
2023/11/24 00:27:16;;;;;;;11.30;7.00;;;;;;;7.67;73.72;94617.47;4853303;29;20066;-77
2023/11/24 00:29:41;;;;;;;13.02;7.00;;;;;;;7.63;73.71;94622.28;4853205;29;20026;-76
2023/11/24 00:32:07;;;;;;;12.18;7.85;;;;;;;7.61;73.77;94617.22;4853233;29;20025;-76
2023/11/24 00:34:32;;;;;;;10.93;7.30;;;;;;;7.58;74.04;94601.66;4853715;29;20507;-76
2023/11/24 00:36:58;;;;;;;12.55;7.63;;;;;;;7.61;73.79;94605.50;4851267;29;20452;-76
2023/11/24 00:39:24;;;;;;;12.75;8.45;;;;;;;7.56;73.76;94603.25;4837589;29;20025;-76
2023/11/24 00:41:49;;;;;;;14.45;8.40;;;;;;;7.53;73.81;94604.13;4852307;29;20041;-76
2023/11/24 00:44:14;;;;;;;12.50;9.10;;;;;;;7.49;73.89;94589.75;4836778;29;20192;-76
2023/11/24 00:46:40;;;;;;;13.20;9.00;;;;;;;7.40;73.93;94587.63;4851669;29;20049;-76
2023/11/24 00:49:05;;;;;;;12.85;8.02;;;;;;;7.54;73.70;94594.72;4851627;29;20021;-76
2023/11/24 00:51:30;;;;;;;13.35;8.15;;;;;;;7.50;73.88;94588.56;4853422;29;20024;-76
2023/11/24 00:53:56;;;;;;;11.90;6.95;;;;;;;7.48;74.20;94577.28;4852893;29;20029;-76
2023/11/24 00:56:22;;;;;;;9.48;6.80;;;;;;;7.46;74.11;94572.25;4853668;29;20061;-76
2023/11/24 00:58:48;;;;;;;13.57;7.72;;;;;;;7.42;74.56;94569.56;4837376;29;20033;-76
2023/11/24 01:01:13;;;;;;;12.85;7.40;;;;;;;7.44;74.34;94567.19;4855657;29;20505;-75
2023/11/24 01:03:39;;;;;;;15.70;8.23;;;;;;;7.40;74.36;94563.00;4839109;29;20084;-76
2023/11/24 01:06:04;;;;;;;14.38;8.32;;;;;;;7.37;74.48;94552.91;4855070;29;20022;-77
2023/11/24 01:08:33;;;;;;;12.65;7.28;;;;;;;7.34;74.38;94553.75;4854932;29;20456;-76
2023/11/24 01:10:58;;;;;;;14.40;8.00;;;;;;;7.35;74.35;94544.38;4855929;29;20026;-76
2023/11/24 01:13:24;;;;;;;13.23;7.55;;;;;;;7.29;74.35;94538.63;4855450;29;20041;-76
2023/11/24 01:15:50;;;;;;;13.70;7.50;;;;;;;7.27;74.44;94537.50;4854159;29;20030;-76
2023/11/24 01:18:18;;;;;;;9.63;6.38;;;;;;;7.26;74.48;94527.75;4856679;29;20034;-76
2023/11/24 01:20:44;;;;;;;10.63;7.07;;;;;;;7.24;74.48;94524.69;4855543;29;20029;-77
2023/11/24 01:23:09;;;;;;;12.90;7.28;;;;;;;7.24;74.30;94514.53;4839456;29;20110;-76
2023/11/24 01:25:35;;;;;;;11.27;7.20;;;;;;;7.19;74.20;94504.09;4855629;29;20516;-76
2023/11/24 01:28:01;;;;;;;12.63;7.50;;;;;;;7.18;74.21;94508.03;4855386;29;20104;-76
2023/11/24 01:30:26;;;;;;;12.25;7.80;;;;;;;7.16;74.43;94502.97;4856024;29;20045;-76
2023/11/24 01:32:52;;;;;;;12.75;7.20;;;;;;;7.16;74.23;94513.91;4854080;29;20077;-76
2023/11/24 01:35:18;;;;;;;12.00;7.28;;;;;;;7.09;74.18;94491.44;4856182;29;20057;-77
2023/11/24 01:37:44;;;;;;;14.77;6.90;;;;;;;7.08;74.33;94484.44;4853873;29;20040;-77
2023/11/24 01:40:10;;;;;;;10.65;6.95;;;;;;;7.07;74.40;94489.13;4856048;29;20026;-76
2023/11/24 01:42:39;;;;;;;11.48;6.90;;;;;;;7.05;74.49;94488.75;4855267;29;20113;-77
2023/11/24 01:45:09;;;;;;;11.70;7.35;;;;;;;6.98;74.61;94472.53;4869490;29;20037;-76
2023/11/24 01:47:34;;;;;;;9.93;6.65;;;;;;;6.98;74.81;94472.53;4854532;29;20040;-75
2023/11/24 01:50:01;;;;;;;10.88;5.95;;;;;;;6.98;74.92;94472.53;4855207;29;20025;-76
2023/11/24 01:52:26;;;;;;;10.80;6.70;;;;;;;6.93;74.83;94470.28;4854774;29;20089;-77
2023/11/24 01:54:53;;;;;;;12.70;7.53;;;;;;;6.92;74.88;94463.28;4853773;29;20137;-77
2023/11/24 01:57:19;;;;;;;11.82;6.57;;;;;;;6.92;74.71;94463.28;4839351;29;20045;-75
2023/11/24 01:59:45;;;;;;;10.88;6.20;;;;;;;6.92;74.77;94457.84;4853813;29;20028;-77
2023/11/24 02:02:10;;;;;;;8.98;6.13;;;;;;;6.89;74.99;94453.22;4838976;29;20399;-76
2023/11/24 02:04:36;;;;;;;9.52;6.18;;;;;;;6.89;74.86;94447.78;4853782;29;20125;-77
2023/11/24 02:07:02;;;;;;;10.65;6.50;;;;;;;6.89;74.93;94442.31;4838649;29;20026;-75
2023/11/24 02:09:29;;;;;;;9.88;6.68;;;;;;;6.90;74.82;94439.13;4853983;29;20121;-77
2023/11/24 02:11:55;;;;;;;10.30;6.53;;;;;;;6.91;74.67;94451.59;4853345;29;20041;-76
2023/11/24 02:14:21;;;;;;;10.75;6.97;;;;;;;6.89;74.74;94436.84;4854303;29;20136;-76
2023/11/24 02:16:46;;;;;;;11.82;7.28;;;;;;;6.89;74.92;94431.38;4854477;29;20029;-77
2023/11/24 02:19:14;;;;;;;13.75;8.43;;;;;;;6.86;75.15;94427.50;4854017;29;20505;-77
2023/11/24 02:21:40;;;;;;;11.45;7.70;;;;;;;6.87;75.23;94425.53;4837924;29;20603;-77
2023/11/24 02:24:05;;;;;;;14.25;9.13;;;;;;;6.91;75.11;94415.31;4838238;29;20124;-78
2023/11/24 02:26:31;;;;;;;13.98;8.02;;;;;;;6.94;75.12;94406.28;4855298;29;20044;-77
2023/11/24 02:28:56;;;;;;;12.73;8.07;;;;;;;6.93;75.34;94405.47;4853083;29;20038;-76
2023/11/24 02:31:23;;;;;;;14.90;8.25;;;;;;;6.88;75.46;94392.34;4838542;29;20029;-75
2023/11/24 02:33:49;;;;;;;21.75;9.07;;;;;;;6.94;75.21;94392.63;4854169;29;20048;-76
2023/11/24 02:36:20;;;;;;;14.10;8.20;;;;;;;6.90;75.45;94376.28;4838806;29;20025;-74
2023/11/24 02:38:49;;;;;;;16.58;9.32;;;;;;;6.89;75.62;94372.03;4852934;29;20055;-75
2023/11/24 02:41:18;;;;;;;19.80;11.05;;;;;;;6.92;75.50;94370.38;4853512;29;20039;-76
2023/11/24 02:43:44;;;;;;;19.70;11.20;;;;;;;6.91;75.73;94368.84;4823084;29;20022;-76
2023/11/24 02:46:13;;;;;;;22.02;11.75;;;;;;;6.82;75.67;94349.53;4854433;29;20026;-78
2023/11/24 02:48:43;;;;;;;18.73;10.38;;;;;;;6.85;76.01;94359.63;4855222;29;20025;-76
2023/11/24 02:51:09;;;;;;;18.08;10.45;;;;;;;6.82;75.95;94360.47;4852558;29;20029;-76
2023/11/24 02:53:36;;;;;;;18.55;10.57;;;;;;;6.79;76.08;94361.34;4853684;29;20029;-75
2023/11/24 02:56:03;;;;;;;18.55;10.25;;;;;;;6.81;76.06;94351.50;4837270;29;20153;-75
2023/11/24 02:58:30;;;;;;;24.33;11.80;;;;;;;6.80;76.21;94355.44;4837729;29;20113;-76
2023/11/24 03:00:57;;;;;;;21.52;11.38;;;;;;;6.76;76.23;94335.63;4853218;29;20060;-77
2023/11/24 03:03:26;;;;;;;20.05;10.52;;;;;;;6.76;76.26;94348.53;4837290;29;20041;-77
2023/11/24 03:05:51;;;;;;;25.15;11.55;;;;;;;6.78;76.46;94351.63;4854850;29;20501;-75
2023/11/24 03:08:19;;;;;;;27.05;11.38;;;;;;;6.75;76.64;94350.50;4852194;29;20037;-76
2023/11/24 03:10:44;;;;;;;24.45;12.95;;;;;;;6.67;77.12;94349.13;4853640;29;20043;-76
2023/11/24 03:13:10;;;;;;;24.35;11.73;;;;;;;6.65;77.36;94330.44;4853556;29;20116;-77
2023/11/24 03:15:35;;;;;;;23.30;11.07;;;;;;;6.70;77.32;94331.09;4854466;29;20497;-77
2023/11/24 03:18:01;;;;;;;28.00;11.32;;;;;;;6.65;76.95;94324.97;4853883;29;20527;-75
2023/11/24 03:20:26;;;;;;;27.27;11.57;;;;;;;6.68;77.43;94322.59;4852413;29;20029;-74
2023/11/24 03:22:52;;;;;;;24.23;12.18;;;;;;;6.62;77.31;94314.13;4854173;29;20052;-76
2023/11/24 03:25:19;;;;;;;28.70;11.27;;;;;;;6.63;77.78;94321.13;4852132;29;20037;-75
2023/11/24 03:27:44;;;;;;;40.85;11.95;;;;;;;6.62;77.95;94297.75;4853029;29;20052;-76
2023/11/24 03:30:10;;;;;;;21.70;11.40;;;;;;;6.53;78.52;94295.59;4836535;29;20116;-77
2023/11/24 03:32:35;;;;;;;26.55;10.95;;;;;;;6.48;79.00;94292.59;4853279;29;20035;-77
2023/11/24 03:35:01;;;;;;;19.83;11.27;;;;;;;6.47;78.98;94291.06;4853701;29;20108;-77
2023/11/24 03:37:26;;;;;;;26.17;11.95;;;;;;;6.49;79.26;94278.53;4837317;29;20406;-76
2023/11/24 03:39:53;;;;;;;23.77;12.20;;;;;;;6.47;79.38;94278.19;4852319;29;20033;-75
2023/11/24 03:42:19;;;;;;;25.92;12.57;;;;;;;6.46;79.73;94273.91;4852549;29;20083;-76
2023/11/24 03:44:44;;;;;;;24.05;13.52;;;;;;;6.52;79.26;94272.22;4837024;29;20044;-76
2023/11/24 03:47:10;;;;;;;22.50;13.98;;;;;;;6.53;79.75;94260.09;4853177;29;20112;-76
2023/11/24 03:49:35;;;;;;;22.33;12.90;;;;;;;6.52;79.67;94257.78;4852817;29;20338;-76
2023/11/24 03:52:01;;;;;;;22.50;12.93;;;;;;;6.59;79.51;94268.53;4852929;29;20528;-76
2023/11/24 03:54:26;;;;;;;27.83;14.32;;;;;;;6.60;79.54;94256.44;4854183;29;20241;-76
2023/11/24 03:56:51;;;;;;;23.95;13.55;;;;;;;6.67;79.59;94247.31;4853318;29;20050;-77
2023/11/24 03:59:17;;;;;;;25.95;14.77;;;;;;;6.71;79.28;94256.94;4852400;29;20041;-77
2023/11/24 04:01:42;;;;;;;26.30;15.05;;;;;;;6.73;79.40;94249.09;4821546;29;20057;-76
2023/11/24 04:04:07;;;;;;;24.50;14.90;;;;;;;6.75;79.18;94243.94;4853507;29;20385;-77
2023/11/24 04:06:33;;;;;;;25.00;13.77;;;;;;;6.78;79.08;94240.38;4853788;29;20473;-77
2023/11/24 04:08:58;;;;;;;29.52;13.77;;;;;;;6.82;79.07;94257.41;4853197;29;20017;-77
2023/11/24 04:11:24;;;;;;;26.55;14.45;;;;;;;6.86;78.87;94251.88;4854605;29;20117;-76
2023/11/24 04:13:50;;;;;;;27.77;14.95;;;;;;;6.88;78.90;94246.75;4852644;29;20120;-77
2023/11/24 04:16:17;;;;;;;27.63;14.70;;;;;;;6.90;78.59;94245.13;4837244;29;20564;-77
2023/11/24 04:18:43;;;;;;;27.67;14.13;;;;;;;7.00;78.62;94256.22;4851829;29;20026;-77
2023/11/24 04:21:09;;;;;;;31.30;15.30;;;;;;;7.02;78.49;94259.28;4836768;29;20060;-77
2023/11/24 04:23:34;;;;;;;29.90;15.00;;;;;;;7.00;78.69;94257.00;4852198;29;20034;-77
2023/11/24 04:26:00;;;;;;;27.20;13.48;;;;;;;7.03;78.44;94249.88;4853134;29;20113;-77
2023/11/24 04:28:25;;;;;;;31.80;15.70;;;;;;;7.01;78.60;94269.47;4853756;29;20033;-76
2023/11/24 04:30:52;;;;;;;26.55;14.30;;;;;;;7.05;78.22;94264.66;4851040;29;20048;-76
2023/11/24 04:33:18;;;;;;;26.15;15.18;;;;;;;7.00;78.50;94257.00;4855387;29;20088;-75
2023/11/24 04:35:44;;;;;;;27.85;15.77;;;;;;;7.03;78.62;94260.81;4856443;29;20026;-76
2023/11/24 04:38:09;;;;;;;27.60;14.02;;;;;;;7.02;78.49;94254.59;4856940;29;20440;-76
2023/11/24 04:40:35;;;;;;;28.05;15.25;;;;;;;7.02;78.87;94265.53;4855147;29;20029;-76
2023/11/24 04:43:01;;;;;;;27.55;15.40;;;;;;;7.05;78.60;94258.41;4855450;29;20037;-77
2023/11/24 04:45:26;;;;;;;28.73;15.57;;;;;;;7.04;78.44;94256.88;4857300;29;20025;-77
2023/11/24 04:47:52;;;;;;;30.77;16.58;;;;;;;7.11;78.24;94253.97;4854499;29;20039;-77
2023/11/24 04:50:17;;;;;;;29.27;15.25;;;;;;;7.11;78.56;94251.22;4840462;29;20049;-76
2023/11/24 04:52:42;;;;;;;30.10;15.02;;;;;;;7.13;78.52;94259.78;4854274;29;20410;-76
2023/11/24 04:55:08;;;;;;;31.63;15.82;;;;;;;7.09;78.58;94251.66;4855650;29;20040;-76
2023/11/24 04:57:33;;;;;;;31.70;15.85;;;;;;;7.08;78.85;94252.09;4856086;29;20460;-76
2023/11/24 05:00:00;;;;;;;33.58;15.50;;;;;;;7.11;78.73;94251.22;4856245;29;20104;-76
2023/11/24 05:02:27;;;;;;;29.58;15.00;;;;;;;7.15;78.59;94258.13;4855363;29;20058;-76
2023/11/24 05:04:54;;;;;;;27.92;16.52;;;;;;;7.16;78.66;94253.44;4838727;29;20440;-76
2023/11/24 05:07:21;;;;;;;29.45;15.40;;;;;;;7.17;78.73;94244.81;4855797;29;20029;-77
2023/11/24 05:09:47;;;;;;;30.17;16.27;;;;;;;7.22;78.38;94256.41;4838784;29;20037;-77
2023/11/24 05:12:13;;;;;;;32.00;16.08;;;;;;;7.23;78.25;94236.09;4856818;29;20514;-76
2023/11/24 05:14:39;;;;;;;32.22;16.17;;;;;;;7.23;78.13;94241.56;4854449;29;20026;-77
2023/11/24 05:17:05;;;;;;;31.33;16.25;;;;;;;7.27;78.35;94242.97;4839437;29;20238;-75
2023/11/24 05:19:30;;;;;;;26.27;15.18;;;;;;;7.24;78.67;94224.72;4854770;29;20037;-77
2023/11/24 05:21:56;;;;;;;31.35;16.58;;;;;;;7.23;78.76;94214.22;4855631;29;20109;-76
2023/11/24 05:24:21;;;;;;;30.45;17.00;;;;;;;7.24;78.70;94222.00;4856432;29;20436;-76
2023/11/24 05:26:47;;;;;;;29.67;16.70;;;;;;;7.14;78.72;94198.44;4855247;29;20089;-76
2023/11/24 05:29:12;;;;;;;26.38;15.80;;;;;;;7.27;78.96;94201.97;4855150;29;20072;-75
2023/11/24 05:31:38;;;;;;;24.33;15.52;;;;;;;7.29;78.94;94204.31;4838458;29;20025;-76
2023/11/24 05:34:03;;;;;;;28.17;16.50;;;;;;;7.29;79.18;94210.53;4856322;29;20471;-77
2023/11/24 05:36:29;;;;;;;28.63;15.90;;;;;;;7.32;79.09;94209.66;4854861;29;20510;-76
2023/11/24 05:38:55;;;;;;;29.75;15.80;;;;;;;7.33;79.07;94204.94;4838774;29;20098;-76
2023/11/24 05:41:21;;;;;;;27.08;15.38;;;;;;;7.35;78.71;94197.84;4854242;29;20116;-76
2023/11/24 05:43:47;;;;;;;27.67;14.82;;;;;;;7.40;78.68;94202.03;4854877;29;20525;-77
2023/11/24 05:46:12;;;;;;;35.13;17.52;;;;;;;7.44;78.48;94208.91;4854147;29;20033;-77
2023/11/24 05:48:38;;;;;;;31.08;18.23;;;;;;;7.45;78.27;94204.22;4853746;29;20497;-76
2023/11/24 05:51:04;;;;;;;33.60;19.33;;;;;;;7.47;78.02;94212.75;4854596;29;20030;-76
2023/11/24 05:53:29;;;;;;;34.88;18.40;;;;;;;7.51;77.59;94216.16;4838319;29;20485;-77
2023/11/24 05:55:55;;;;;;;35.45;19.60;;;;;;;7.54;77.60;94198.13;4838889;29;20064;-76
2023/11/24 05:58:21;;;;;;;38.72;22.35;;;;;;;7.56;77.06;94199.19;4854237;29;20477;-76
2023/11/24 06:00:48;;;;;;;56.58;29.05;;;;;;;7.64;76.62;94200.53;4855768;29;20026;-76
2023/11/24 06:03:14;;;;;;;55.97;31.58;;;;;;;7.66;76.14;94200.09;4854492;29;20320;-76
2023/11/24 06:05:40;;;;;;;58.20;33.13;;;;;;;7.66;75.96;94203.59;4853430;29;20033;-76
2023/11/24 06:08:05;;;;;;;54.88;32.60;;;;;;;7.69;75.77;94210.19;4855991;29;20026;-76
2023/11/24 06:10:31;;;;;;;59.17;30.60;;;;;;;7.70;75.18;94209.75;4853612;29;20060;-76
2023/11/24 06:12:57;;;;;;;54.95;28.33;;;;;;;7.67;75.35;94202.38;4854181;29;20034;-75
2023/11/24 06:15:23;;;;;;;45.53;26.65;;;;;;;7.64;74.65;94199.78;4853525;29;20057;-76
2023/11/24 06:17:51;;;;;;;40.40;22.13;;;;;;;7.61;74.70;94200.63;4838589;29;20509;-76
2023/11/24 06:20:16;;;;;;;36.30;20.58;;;;;;;7.66;74.35;94197.38;4853773;29;20469;-75
2023/11/24 06:22:44;;;;;;;42.50;20.67;;;;;;;7.71;74.11;94196.81;4853383;29;20076;-76
2023/11/24 06:25:10;;;;;;;34.95;19.58;;;;;;;7.64;74.30;94199.78;4855336;29;20108;-76
2023/11/24 06:27:36;;;;;;;38.97;20.67;;;;;;;7.63;74.46;94195.50;4852786;29;20121;-76
2023/11/24 06:30:05;;;;;;;38.17;21.00;;;;;;;7.52;74.54;94178.66;4853979;29;20040;-76
2023/11/24 06:32:31;;;;;;;35.08;19.83;;;;;;;7.63;74.42;94187.31;4822969;29;20030;-75
2023/11/24 06:34:56;;;;;;;38.35;22.92;;;;;;;7.65;74.54;94190.38;4854085;29;20029;-78
2023/11/24 06:37:22;;;;;;;48.00;24.67;;;;;;;7.64;75.05;94197.81;4854879;29;20072;-76
2023/11/24 06:39:47;;;;;;;43.25;23.27;;;;;;;7.64;75.12;94188.84;4853669;29;20431;-76
2023/11/24 06:42:13;;;;;;;43.63;24.90;;;;;;;7.68;75.06;94194.94;4855038;29;20061;-76
2023/11/24 06:44:38;;;;;;;44.85;24.65;;;;;;;7.68;75.47;94187.53;4852896;29;20030;-75
2023/11/24 06:47:04;;;;;;;51.67;25.85;;;;;;;7.69;75.56;94177.34;4855357;29;20424;-74
2023/11/24 06:49:29;;;;;;;60.78;28.98;;;;;;;7.72;75.64;94171.75;4853787;29;20031;-74
2023/11/24 06:51:55;;;;;;;52.92;26.48;;;;;;;7.72;75.77;94169.03;4855091;29;20112;-74
2023/11/24 06:54:21;;;;;;;62.83;28.30;;;;;;;7.76;75.84;94165.44;4837338;29;20513;-73
2023/11/24 06:56:46;;;;;;;58.75;27.48;;;;;;;7.78;75.69;94157.53;4854135;29;20065;-73
2023/11/24 06:59:12;;;;;;;57.95;27.92;;;;;;;7.83;76.06;94157.00;4852982;29;20072;-73
2023/11/24 07:01:38;;;;;;;59.17;28.50;;;;;;;7.82;75.69;94145.28;4854018;29;20033;-73
2023/11/24 07:04:04;;;;;;;59.22;27.40;;;;;;;7.83;75.70;94146.06;4853797;29;20022;-86
2023/11/24 07:06:30;;;;;;;58.47;28.42;;;;;;;7.94;75.85;94143.75;4837037;29;20029;-73
2023/11/24 07:08:56;;;;;;;59.42;27.02;;;;;;;7.94;75.64;94143.75;4853672;29;20026;-72
2023/11/24 07:11:22;;;;;;;57.13;28.00;;;;;;;7.96;75.97;94146.81;4853380;29;20072;-74
2023/11/24 07:13:48;;;;;;;61.95;28.80;;;;;;;8.01;76.09;94145.50;4853245;29;20029;-73
2023/11/24 07:16:13;;;;;;;59.00;27.52;;;;;;;8.08;76.01;94150.75;4852490;29;20022;-73
2023/11/24 07:18:39;;;;;;;55.70;28.25;;;;;;;8.13;75.96;94140.00;4822227;29;20045;-74
2023/11/24 07:21:07;;;;;;;56.10;28.77;;;;;;;8.19;75.64;94134.72;4838041;29;20062;-74
2023/11/24 07:23:37;;;;;;;60.38;29.05;;;;;;;8.31;75.79;94130.44;4852292;29;20579;-74
2023/11/24 07:26:03;;;;;;;55.25;28.70;;;;;;;8.28;75.83;94128.59;4838572;29;20036;-74
2023/11/24 07:28:29;;;;;;;55.70;27.92;;;;;;;8.43;75.83;94135.16;4852748;29;20037;-74
2023/11/24 07:30:54;;;;;;;69.05;29.80;;;;;;;8.46;75.64;94135.03;4854478;29;20033;-74
2023/11/24 07:33:19;;;;;;;62.97;30.48;;;;;;;8.49;75.61;94125.94;4836914;29;20105;-74
2023/11/24 07:35:45;;;;;;;63.60;29.75;;;;;;;8.55;75.40;94131.63;4852787;29;20421;-74
2023/11/24 07:38:10;;;;;;;61.40;30.33;;;;;;;8.57;75.28;94129.22;4854160;29;20493;-74
2023/11/24 07:40:36;;;;;;;51.75;29.02;;;;;;;8.64;75.18;94128.97;4836645;29;20037;-74
2023/11/24 07:43:01;;;;;;;56.90;30.02;;;;;;;8.70;75.20;94140.88;4852989;29;20431;-74
2023/11/24 07:45:27;;;;;;;58.95;28.63;;;;;;;8.82;75.11;94147.53;4853105;29;20037;-73
2023/11/24 07:47:52;;;;;;;68.20;28.67;;;;;;;8.84;75.05;94141.63;4854433;29;20029;-74
2023/11/24 07:50:17;;;;;;;52.53;26.95;;;;;;;8.92;74.60;94142.91;4852703;29;20060;-74
2023/11/24 07:52:43;;;;;;;56.75;29.88;;;;;;;9.07;74.37;94140.44;4854082;29;20142;-73
2023/11/24 07:55:11;;;;;;;53.05;27.38;;;;;;;9.12;74.07;94126.91;4853679;29;20410;-74
2023/11/24 07:57:36;;;;;;;49.92;27.27;;;;;;;9.16;74.12;94121.28;4852090;29;20045;-73
2023/11/24 08:00:03;;;;;;;52.53;27.48;;;;;;;9.27;73.91;94122.41;4854071;29;20025;-73
2023/11/24 08:02:29;;;;;;;49.78;26.42;;;;;;;9.34;73.91;94115.13;4852793;29;20073;-74
2023/11/24 08:04:54;;;;;;;49.08;26.73;;;;;;;9.45;73.66;94113.53;4854265;29;20029;-73
2023/11/24 08:07:21;;;;;;;53.40;27.63;;;;;;;9.54;73.41;94110.09;4852525;29;20026;-73
2023/11/24 08:09:47;;;;;;;46.75;26.92;;;;;;;9.57;73.32;94101.69;4857535;29;20441;-73
2023/11/24 08:12:13;;;;;;;44.22;24.05;;;;;;;9.64;73.12;94097.94;4840284;29;20216;-73
2023/11/24 08:14:39;;;;;;;41.38;21.80;;;;;;;9.68;72.79;94097.78;4857310;29;20029;-74
2023/11/24 08:17:04;;;;;;;32.63;19.40;;;;;;;9.73;72.47;94092.47;4857588;29;20094;-74
2023/11/24 08:19:30;;;;;;;40.97;20.10;;;;;;;9.75;72.22;94081.81;4856788;29;20037;-74
2023/11/24 08:21:55;;;;;;;32.78;19.02;;;;;;;9.79;72.36;94085.16;4857676;29;20049;-74
2023/11/24 08:24:21;;;;;;;34.78;19.50;;;;;;;9.80;72.30;94077.69;4854950;29;20025;-73
2023/11/24 08:26:46;;;;;;;33.42;18.95;;;;;;;9.87;72.23;94080.19;4871646;29;20036;-73
2023/11/24 08:29:12;;;;;;;34.13;18.52;;;;;;;9.93;71.71;94078.38;4856196;29;20029;-74
2023/11/24 08:31:37;;;;;;;29.65;17.08;;;;;;;9.94;71.60;94071.66;4857147;29;20029;-74
2023/11/24 08:34:03;;;;;;;29.45;17.80;;;;;;;9.97;71.63;94067.22;4857089;29;20036;-74
2023/11/24 08:36:31;;;;;;;31.70;17.25;;;;;;;10.00;71.58;94058.84;4870642;29;20053;-74
2023/11/24 08:38:57;;;;;;;27.77;17.38;;;;;;;10.01;71.41;94060.38;4848071;29;20041;-73
2023/11/24 08:41:22;;;;;;;33.40;19.20;;;;;;;10.03;71.47;94054.44;4870194;29;20040;-74
2023/11/24 08:43:47;;;;;;;27.48;16.75;;;;;;;10.06;71.22;94039.81;4857102;29;20482;-74
2023/11/24 08:46:13;;;;;;;30.10;19.08;;;;;;;10.11;70.77;94050.19;4854516;29;20040;-73
2023/11/24 08:48:39;;;;;;;33.22;20.35;;;;;;;10.09;70.88;94049.88;4855598;29;20041;-74
2023/11/24 08:51:07;;;;;;;38.13;22.90;;;;;;;10.12;71.01;94037.97;4870375;29;20104;-75
2023/11/24 08:53:34;;;;;;;40.03;23.05;;;;;;;10.16;71.04;94043.34;4855352;29;20037;-74
2023/11/24 08:56:00;;;;;;;43.95;26.13;;;;;;;10.15;71.34;94039.03;4840238;29;20042;-73
2023/11/24 08:58:26;;;;;;;47.55;27.90;;;;;;;10.08;71.32;94024.38;4854913;29;20147;-73
2023/11/24 09:00:53;;;;;;;49.78;28.40;;;;;;;10.16;71.34;94022.13;4856534;29;20029;-73
2023/11/24 09:03:18;;;;;;;43.17;25.95;;;;;;;10.15;71.12;94014.31;4870058;29;20042;-74
2023/11/24 09:05:45;;;;;;;44.42;26.98;;;;;;;10.14;71.08;94013.56;4856873;29;20201;-73
2023/11/24 09:08:11;;;;;;;49.30;27.73;;;;;;;10.19;71.16;94014.94;4856019;29;20037;-73
2023/11/24 09:10:36;;;;;;;51.25;30.08;;;;;;;10.19;71.21;94006.72;4870519;29;20025;-73
2023/11/24 09:13:01;;;;;;;53.72;31.85;;;;;;;10.18;71.30;93997.72;4856250;29;20049;-74
2023/11/24 09:15:27;;;;;;;58.80;32.95;;;;;;;10.16;71.40;93985.66;4856263;29;20112;-73
2023/11/24 09:17:53;;;;;;;61.55;35.03;;;;;;;10.19;71.44;93991.00;4856595;29;20037;-73
2023/11/24 09:20:18;;;;;;;56.20;31.27;;;;;;;10.18;71.56;93983.97;4855661;29;20040;-74
2023/11/24 09:22:45;;;;;;;50.53;29.65;;;;;;;10.26;71.61;93989.94;4870529;29;20037;-74
2023/11/24 09:25:11;;;;;;;51.90;28.98;;;;;;;10.24;71.41;93987.66;4823108;29;20417;-74
2023/11/24 09:27:38;;;;;;;52.30;30.17;;;;;;;10.20;71.20;93975.28;4869930;29;20030;-75
2023/11/24 09:30:08;;;;;;;52.10;30.08;;;;;;;10.19;71.22;93968.25;4854249;29;20048;-74
2023/11/24 09:32:37;;;;;;;51.40;30.38;;;;;;;10.20;71.27;93965.03;4868493;29;20055;-74
2023/11/24 09:35:06;;;;;;;53.80;31.98;;;;;;;10.32;70.97;93953.19;4854614;29;20021;-73
2023/11/24 09:37:32;;;;;;;51.67;29.67;;;;;;;10.30;70.95;93952.09;4869298;29;20565;-73
2023/11/24 09:39:58;;;;;;;44.58;26.73;;;;;;;10.29;70.69;93934.88;4856147;29;20038;-74
2023/11/24 09:42:27;;;;;;;37.25;24.25;;;;;;;10.31;70.71;93942.66;4868967;29;20470;-72
2023/11/24 09:44:54;;;;;;;36.75;21.75;;;;;;;10.29;69.67;93929.38;4869932;29;20030;-74
2023/11/24 09:47:20;;;;;;;35.05;22.15;;;;;;;10.29;69.65;93918.38;4856502;29;20037;-72
2023/11/24 09:49:46;;;;;;;35.83;21.10;;;;;;;10.27;69.92;93915.34;4854856;29;20117;-74
2023/11/24 09:52:13;;;;;;;35.42;21.02;;;;;;;10.35;70.05;93904.78;4869476;29;20033;-75
2023/11/24 09:54:40;;;;;;;33.03;22.17;;;;;;;10.35;70.27;93908.31;4869374;29;20048;-73
2023/11/24 09:57:05;;;;;;;41.35;23.40;;;;;;;10.33;70.57;93901.75;4839148;29;20399;-75
2023/11/24 09:59:31;;;;;;;38.80;23.83;;;;;;;10.33;70.63;93901.75;4868925;29;20581;-73
2023/11/24 10:01:57;;;;;;;35.13;22.33;;;;;;;10.33;70.60;93893.50;4856073;29;20096;-74
2023/11/24 10:04:23;;;;;;;38.65;23.27;;;;;;;10.30;70.64;93892.44;4869166;29;20043;-74
2023/11/24 10:06:49;;;;;;;42.00;25.60;;;;;;;10.33;70.75;93888.03;4855527;29;20137;-73
2023/11/24 10:09:22;;;;;;;47.05;28.85;;;;;;;10.31;70.98;93885.72;4869364;29;20564;-75
2023/11/24 10:11:47;;;;;;;47.35;29.67;;;;;;;10.35;71.28;93877.31;4868981;29;20029;-75
2023/11/24 10:14:13;;;;;;;54.90;33.58;;;;;;;10.39;71.35;93875.19;4854476;29;20038;-74
2023/11/24 10:16:40;;;;;;;54.03;34.80;;;;;;;10.39;71.56;93861.47;4854492;29;20033;-75
2023/11/24 10:19:10;;;;;;;64.22;38.55;;;;;;;10.39;71.72;93864.19;4869604;29;20033;-75
2023/11/24 10:21:36;;;;;;;67.63;39.97;;;;;;;10.39;72.06;93866.19;4853335;29;20144;-73
2023/11/24 10:24:02;;;;;;;64.65;41.00;;;;;;;10.43;72.04;93866.78;4853833;29;20145;-73
2023/11/24 10:26:27;;;;;;;66.90;40.67;;;;;;;10.51;71.85;93854.25;4838090;29;20566;-74
2023/11/24 10:28:54;;;;;;;69.13;41.33;;;;;;;10.60;71.49;93848.72;4868570;29;20098;-74
2023/11/24 10:31:20;;;;;;;63.75;39.33;;;;;;;10.53;72.22;93843.53;4854782;29;20173;-74
2023/11/24 10:33:46;;;;;;;65.07;39.13;;;;;;;10.49;72.16;93843.69;4854339;29;20063;-73
2023/11/24 10:36:12;;;;;;;57.78;34.53;;;;;;;10.52;72.27;93831.03;4869125;29;20540;-75
2023/11/24 10:38:41;;;;;;;60.10;35.92;;;;;;;10.52;72.48;93820.81;4868279;29;20112;-73
2023/11/24 10:41:18;;;;;;;52.13;32.03;;;;;;;10.52;72.48;93820.81;4869208;29;20064;-73
2023/11/24 10:43:47;;;;;;;57.95;32.13;;;;;;;10.48;72.63;93803.72;4868112;29;20041;-73
2023/11/24 10:46:13;;;;;;;56.75;31.60;;;;;;;10.58;72.49;93804.44;4854267;29;20484;-73
2023/11/24 10:49:08;;;;;;;58.35;32.20;;;;;;;10.61;72.56;93811.78;4869068;29;20033;-74
2023/11/24 10:51:42;;;;;;;58.33;30.52;;;;;;;10.59;72.82;93809.47;4867976;29;20064;-74
2023/11/24 10:54:12;;;;;;;54.20;30.83;;;;;;;10.50;73.00;93781.28;4854914;29;20030;-74
2023/11/24 10:56:38;;;;;;;59.80;31.38;;;;;;;10.64;72.77;93797.09;4867945;29;20042;-74
2023/11/24 10:59:05;;;;;;;58.65;30.88;;;;;;;10.63;72.75;93792.84;4868388;29;20045;-74
2023/11/24 11:01:31;;;;;;;62.92;35.08;;;;;;;10.66;72.58;93786.38;4868760;29;20033;-74
2023/11/24 11:03:58;;;;;;;56.13;32.08;;;;;;;10.69;72.58;93774.47;4853575;29;20473;-74
2023/11/24 11:06:33;;;;;;;54.38;30.35;;;;;;;10.73;72.47;93764.09;4868756;29;20052;-74
2023/11/24 11:12:31;;;;;;;64.43;32.13;;;;;;;10.81;72.12;93754.25;4790457;29;20491;-74
2023/11/24 11:14:57;;;;;;;57.35;31.05;;;;;;;10.84;71.85;93752.56;4775909;29;20408;-74
2023/11/24 11:17:25;;;;;;;57.30;30.95;;;;;;;10.85;71.62;93754.84;4793228;29;20093;-73
2023/11/24 11:20:12;;;;;;;54.05;28.85;;;;;;;10.92;71.54;93752.97;4794266;29;20083;-74
2023/11/24 11:22:46;;;;;;;51.28;28.13;;;;;;;10.96;71.28;93746.09;4778716;30;20190;-73